Time;durP1;ratioP1;P1;durP2;ratioP2;P2;SDS_P1;SDS_P2;PMS_P1;PMS_P2;Temp;Humidity;BMP_temperature;BMP_pressure;BME280_temperature;BME280_humidity;BME280_pressure;Samples;Min_cycle;Max_cycle;Signal;HPM_P1;HPM_P2
2021/11/08 00:01:47;;;;;;;2.13;1.52;;;22.70;37.00;;;;;;5054344;28;20959;-62
2021/11/08 00:04:12;;;;;;;2.22;1.73;;;22.70;37.00;;;;;;5072525;28;20376;-62
2021/11/08 00:06:38;;;;;;;2.40;1.70;;;22.70;37.00;;;;;;5072436;28;20403;-77
2021/11/08 00:09:05;;;;;;;2.30;1.63;;;22.70;37.00;;;;;;5088011;28;20866;-62
2021/11/08 00:11:32;;;;;;;2.83;1.60;;;22.70;37.00;;;;;;5072302;28;20384;-62
2021/11/08 00:13:58;;;;;;;2.17;1.55;;;22.70;37.00;;;;;;5053192;28;20788;-78
2021/11/08 00:16:42;;;;;;;2.67;1.58;;;22.70;37.00;;;;;;5054594;28;20451;-78
2021/11/08 00:19:32;;;;;;;2.78;1.40;;;22.70;37.10;;;;;;5072233;28;20384;-73
2021/11/08 00:22:00;;;;;;;2.33;1.60;;;22.70;37.10;;;;;;5071831;28;20435;-68
2021/11/08 00:24:27;;;;;;;2.20;1.50;;;22.70;37.10;;;;;;5072253;28;20853;-78
2021/11/08 00:26:53;;;;;;;1.90;1.30;;;22.70;37.10;;;;;;5054784;28;20446;-76
2021/11/08 00:29:19;;;;;;;2.47;1.50;;;22.70;37.20;;;;;;5073956;28;20394;-75
2021/11/08 00:31:45;;;;;;;2.40;1.52;;;22.70;37.20;;;;;;5072902;28;20394;-62
2021/11/08 00:34:11;;;;;;;2.40;1.40;;;22.70;37.10;;;;;;5072000;28;20401;-73
2021/11/08 00:36:37;;;;;;;2.33;1.40;;;22.70;37.10;;;;;;5054050;28;20392;-62
2021/11/08 00:39:04;;;;;;;2.30;1.42;;;22.70;37.10;;;;;;5071872;28;20395;-78
2021/11/08 00:41:29;;;;;;;1.90;1.40;;;22.60;37.00;;;;;;5071625;28;20885;-62
2021/11/08 00:43:55;;;;;;;2.30;1.40;;;22.60;37.10;;;;;;5072441;28;20392;-74
2021/11/08 00:46:21;;;;;;;2.40;1.40;;;22.60;37.10;;;;;;5072479;28;20383;-64
2021/11/08 00:48:46;;;;;;;2.20;1.60;;;22.60;37.10;;;;;;5071767;28;20419;-62
2021/11/08 00:51:14;;;;;;;2.72;1.60;;;22.60;37.60;;;;;;5071686;28;20380;-62
2021/11/08 00:53:41;;;;;;;2.10;1.50;;;22.60;36.90;;;;;;5071367;28;20400;-62
2021/11/08 00:56:11;;;;;;;2.13;1.33;;;22.60;37.00;;;;;;5071624;28;20553;-68
2021/11/08 00:58:39;;;;;;;2.25;1.50;;;22.60;37.00;;;;;;5071673;28;20415;-63
2021/11/08 01:01:08;;;;;;;2.20;1.40;;;22.60;37.10;;;;;;5071360;28;20758;-74
2021/11/08 01:03:40;;;;;;;2.35;1.50;;;22.60;37.10;;;;;;5071574;28;20384;-64
2021/11/08 01:06:06;;;;;;;2.30;1.25;;;22.60;37.10;;;;;;5071536;28;20470;-78
2021/11/08 01:08:32;;;;;;;2.55;1.42;;;22.60;37.20;;;;;;5071399;28;20834;-65
2021/11/08 01:10:58;;;;;;;3.47;1.30;;;22.60;37.20;;;;;;5071262;28;20419;-63
2021/11/08 01:13:24;;;;;;;1.90;1.23;;;22.60;37.20;;;;;;5071455;28;20386;-66
2021/11/08 01:15:51;;;;;;;1.92;1.35;;;22.60;37.20;;;;;;5071162;28;20375;-74
2021/11/08 01:18:18;;;;;;;2.20;1.40;;;22.60;37.20;;;;;;5072219;28;20410;-62
2021/11/08 01:20:46;;;;;;;1.80;1.30;;;22.60;37.20;;;;;;5071154;28;20904;-62
2021/11/08 01:23:15;;;;;;;4.65;1.40;;;22.60;37.20;;;;;;5071344;28;20432;-78
2021/11/08 01:25:41;;;;;;;2.50;1.50;;;22.50;37.10;;;;;;5058091;28;20486;-62
2021/11/08 01:28:09;;;;;;;1.80;1.33;;;22.50;37.10;;;;;;5093568;28;20861;-63
2021/11/08 01:30:35;;;;;;;1.80;1.30;;;22.50;37.00;;;;;;5077991;28;20392;-63
2021/11/08 01:33:07;;;;;;;2.05;1.30;;;22.50;37.10;;;;;;5078049;28;20383;-78
2021/11/08 01:35:39;;;;;;;2.50;1.40;;;22.50;37.20;;;;;;5077659;28;20410;-62
2021/11/08 01:38:09;;;;;;;1.65;1.20;;;22.50;37.10;;;;;;5093523;28;20395;-62
2021/11/08 01:40:36;;;;;;;1.85;1.10;;;22.50;37.20;;;;;;5077896;28;20400;-63
2021/11/08 01:43:04;;;;;;;1.73;1.20;;;22.50;37.20;;;;;;5093381;28;20518;-62
2021/11/08 01:45:29;;;;;;;1.73;1.25;;;22.50;37.20;;;;;;5077860;28;20383;-65
2021/11/08 01:47:56;;;;;;;2.00;1.42;;;22.50;37.20;;;;;;5077396;28;20387;-65
2021/11/08 01:50:23;;;;;;;1.80;1.20;;;22.50;37.20;;;;;;5077812;28;20384;-74
2021/11/08 01:52:50;;;;;;;2.15;1.30;;;22.50;37.10;;;;;;5077900;28;20427;-70
2021/11/08 01:55:16;;;;;;;1.60;1.20;;;22.50;37.00;;;;;;5077961;28;20765;-72
2021/11/08 01:57:43;;;;;;;3.08;1.20;;;22.50;37.00;;;;;;5077771;28;20436;-75
2021/11/08 02:00:10;;;;;;;2.00;1.20;;;22.50;37.00;;;;;;5059915;28;21085;-72
2021/11/08 02:02:36;;;;;;;1.77;1.30;;;22.50;37.00;;;;;;5077673;28;20399;-61
2021/11/08 02:05:04;;;;;;;1.92;1.17;;;22.50;37.10;;;;;;5077546;28;20479;-61
2021/11/08 02:07:30;;;;;;;1.50;1.10;;;22.50;37.00;;;;;;5077653;28;20444;-75
2021/11/08 02:09:56;;;;;;;1.73;1.10;;;22.50;37.20;;;;;;5077070;28;20885;-62
2021/11/08 02:12:22;;;;;;;1.55;1.17;;;22.50;37.10;;;;;;5059669;28;20901;-61
2021/11/08 02:14:48;;;;;;;2.08;1.25;;;22.40;37.10;;;;;;5077529;28;20384;-77
2021/11/08 02:17:14;;;;;;;2.22;1.13;;;22.50;37.20;;;;;;5077528;28;20384;-69
2021/11/08 02:19:41;;;;;;;1.95;1.02;;;22.50;37.10;;;;;;5059430;28;20471;-62
2021/11/08 02:22:06;;;;;;;2.42;1.20;;;22.40;37.10;;;;;;5077141;28;20811;-61
2021/11/08 02:24:34;;;;;;;1.90;1.20;;;22.40;37.10;;;;;;5059529;28;20417;-61
2021/11/08 02:27:00;;;;;;;2.40;1.10;;;22.40;37.10;;;;;;5077333;28;20387;-67
2021/11/08 02:29:26;;;;;;;2.95;1.10;;;22.50;37.10;;;;;;5077611;28;20395;-62
2021/11/08 02:31:53;;;;;;;1.50;0.90;;;22.40;37.10;;;;;;5059008;28;21313;-61
2021/11/08 02:34:19;;;;;;;2.22;1.13;;;22.40;37.20;;;;;;5077815;28;20387;-61
2021/11/08 02:36:45;;;;;;;1.63;1.10;;;22.40;37.20;;;;;;5074289;28;20398;-62
2021/11/08 02:39:19;;;;;;;1.70;1.08;;;22.40;37.30;;;;;;5074634;28;20388;-61
2021/11/08 02:41:45;;;;;;;1.70;1.20;;;22.40;37.30;;;;;;5073481;28;20423;-61
2021/11/08 02:44:10;;;;;;;1.80;1.23;;;22.40;37.20;;;;;;5074102;28;20387;-61
2021/11/08 02:46:41;;;;;;;1.88;1.15;;;22.40;37.20;;;;;;5073958;28;20433;-62
2021/11/08 02:49:10;;;;;;;1.83;1.10;;;22.40;37.20;;;;;;5074037;28;20376;-77
2021/11/08 02:51:37;;;;;;;1.80;1.27;;;22.40;37.20;;;;;;5055708;28;20399;-62
2021/11/08 02:54:11;;;;;;;1.90;1.00;;;22.40;37.10;;;;;;5073535;28;20376;-61
2021/11/08 02:56:36;;;;;;;1.42;1.00;;;22.40;37.20;;;;;;5074006;28;20400;-61
2021/11/08 02:59:02;;;;;;;2.00;1.17;;;22.40;37.30;;;;;;5073693;28;20388;-72
2021/11/08 03:01:28;;;;;;;1.20;0.90;;;22.40;37.40;;;;;;5073715;28;20970;-69
2021/11/08 03:03:58;;;;;;;1.50;0.93;;;22.30;37.30;;;;;;5073097;28;20388;-61
2021/11/08 03:06:29;;;;;;;1.75;0.98;;;22.30;37.30;;;;;;5055788;28;20836;-73
2021/11/08 03:08:58;;;;;;;1.58;1.00;;;22.30;37.30;;;;;;5055583;28;20881;-61
2021/11/08 03:11:24;;;;;;;2.08;1.02;;;22.30;37.30;;;;;;5089194;28;20400;-61
2021/11/08 03:16:31;;;;;;;1.63;1.10;;;22.30;37.30;;;;;;5073927;28;20391;-66
2021/11/08 03:18:59;;;;;;;2.00;1.00;;;22.30;37.30;;;;;;5073458;28;20396;-61
2021/11/08 03:21:27;;;;;;;2.05;1.20;;;22.30;37.30;;;;;;5073244;28;20453;-67
2021/11/08 03:23:56;;;;;;;1.70;0.90;;;22.30;37.30;;;;;;5072799;28;20416;-76
2021/11/08 03:26:45;;;;;;;1.65;1.00;;;22.30;37.30;;;;;;5073367;28;20391;-76
2021/11/08 03:29:11;;;;;;;1.40;1.00;;;22.30;37.80;;;;;;5073294;28;20430;-61
2021/11/08 03:31:39;;;;;;;2.65;1.23;;;22.30;37.30;;;;;;5073040;28;20392;-76
2021/11/08 03:34:07;;;;;;;1.55;1.13;;;22.30;37.30;;;;;;5072887;28;20384;-61
2021/11/08 03:36:33;;;;;;;1.80;1.08;;;22.30;37.30;;;;;;5072993;28;20753;-61
2021/11/08 03:38:59;;;;;;;1.83;1.10;;;22.30;37.30;;;;;;5072950;28;20380;-61
2021/11/08 03:41:24;;;;;;;2.40;1.20;;;22.30;37.40;;;;;;5072943;28;20514;-72
2021/11/08 03:43:50;;;;;;;1.77;1.10;;;22.30;37.30;;;;;;5054558;28;20398;-75
2021/11/08 03:46:16;;;;;;;2.03;1.08;;;22.30;37.40;;;;;;5072889;28;20384;-61
2021/11/08 03:48:43;;;;;;;2.22;1.00;;;22.30;37.30;;;;;;5072682;28;20384;-76
2021/11/08 03:51:09;;;;;;;2.47;1.08;;;22.20;37.20;;;;;;5072738;28;20898;-61
2021/11/08 03:53:35;;;;;;;1.80;1.20;;;22.30;37.30;;;;;;5054797;28;20739;-63
2021/11/08 03:56:02;;;;;;;1.30;0.90;;;22.30;37.30;;;;;;5072361;28;20425;-61
2021/11/08 03:58:28;;;;;;;1.60;1.00;;;22.30;37.30;;;;;;5072811;28;20372;-77
2021/11/08 04:00:54;;;;;;;1.50;0.90;;;22.20;37.30;;;;;;5072482;28;20404;-77
2021/11/08 04:03:20;;;;;;;1.40;0.97;;;22.20;37.30;;;;;;5073582;28;20964;-77
2021/11/08 04:05:46;;;;;;;4.25;1.00;;;22.30;38.20;;;;;;5072194;28;20375;-72
2021/11/08 04:08:16;;;;;;;4.07;1.00;;;22.20;37.90;;;;;;5072842;28;20419;-62
2021/11/08 04:10:43;;;;;;;10.25;1.20;;;22.30;37.70;;;;;;5073179;28;20384;-61
2021/11/08 04:13:10;;;;;;;8.50;1.20;;;22.30;38.50;;;;;;5072369;28;20547;-78
2021/11/08 04:15:41;;;;;;;4.82;1.02;;;22.30;38.50;;;;;;5071933;28;20943;-76
2021/11/08 04:18:14;;;;;;;3.47;1.23;;;22.40;38.30;;;;;;5071875;28;20383;-75
2021/11/08 04:20:42;;;;;;;3.53;1.10;;;22.40;38.10;;;;;;5071587;28;20399;-67
2021/11/08 04:23:09;;;;;;;10.40;1.60;;;22.40;38.20;;;;;;5072028;28;21295;-61
2021/11/08 04:25:34;;;;;;;10.80;1.50;;;22.40;39.40;;;;;;5087793;28;20398;-76
2021/11/08 04:28:00;;;;;;;10.23;1.50;;;22.50;40.10;;;;;;5073779;28;20396;-62
2021/11/08 04:30:27;;;;;;;9.77;1.30;;;22.50;40.40;;;;;;5072742;28;20376;-61
2021/11/08 04:35:30;;;;;;;8.35;1.50;;;22.50;40.10;;;;;;5072306;28;21084;-74
2021/11/08 04:40:31;;;;;;;11.25;1.38;;;22.60;40.00;;;;;;5072040;28;20398;-61
2021/11/08 04:43:10;;;;;;;7.57;1.27;;;22.60;40.50;;;;;;5053795;28;20395;-60
2021/11/08 04:53:27;;;;;;;9.77;1.33;;;22.60;39.40;;;;;;5071647;28;20394;-61
2021/11/08 05:28:45;;;;;;;2.80;1.03;;;22.50;38.20;;;;;;5071492;28;20877;-60
2021/11/08 05:31:11;;;;;;;6.60;1.27;;;22.50;38.10;;;;;;5069394;28;20490;-60
2021/11/08 05:33:36;;;;;;;3.37;1.10;;;22.50;38.20;;;;;;5070391;28;20384;-60
2021/11/08 05:36:02;;;;;;;6.95;1.15;;;22.50;38.20;;;;;;5070748;28;20395;-70
2021/11/08 05:38:28;;;;;;;2.90;1.10;;;22.50;38.10;;;;;;5069303;28;20380;-60
2021/11/08 05:40:54;;;;;;;3.60;0.90;;;22.50;38.00;;;;;;5070017;28;20455;-60
2021/11/08 05:43:20;;;;;;;2.40;0.93;;;22.50;38.00;;;;;;5070595;28;20881;-76
2021/11/08 05:45:45;;;;;;;2.50;0.90;;;22.50;38.00;;;;;;5070789;28;20384;-60
2021/11/08 05:48:11;;;;;;;3.60;1.17;;;22.50;38.00;;;;;;5052976;28;20395;-63
2021/11/08 05:50:40;;;;;;;4.22;1.27;;;22.40;38.10;;;;;;5071129;28;20441;-60
2021/11/08 05:53:10;;;;;;;4.97;1.27;;;22.40;38.30;;;;;;5070911;28;20392;-77
2021/11/08 06:50:32;;;;;;;4.47;1.05;;;22.30;38.30;;;;;;5094465;28;20879;-60
2021/11/08 06:53:03;;;;;;;5.68;1.05;;;22.30;38.30;;;;;;5094128;28;20385;-61
2021/11/08 06:55:29;;;;;;;6.15;1.10;;;22.30;38.30;;;;;;5094163;28;20389;-70
2021/11/08 06:58:02;;;;;;;3.00;0.80;;;22.30;38.30;;;;;;5093630;28;20386;-60
2021/11/08 07:00:28;;;;;;;3.22;1.10;;;22.20;38.30;;;;;;5094025;28;20386;-60
2021/11/08 07:02:54;;;;;;;2.30;0.90;;;22.20;38.20;;;;;;5093927;28;20398;-61
2021/11/08 07:05:20;;;;;;;3.40;0.87;;;22.20;38.20;;;;;;5094060;28;20386;-61
2021/11/08 07:07:47;;;;;;;2.67;0.90;;;22.20;38.30;;;;;;5093637;28;20390;-61
2021/11/08 07:10:13;;;;;;;2.45;1.17;;;22.20;38.30;;;;;;5075422;28;20465;-60
2021/11/08 07:12:39;;;;;;;3.00;1.08;;;22.20;38.40;;;;;;5093575;28;20386;-60
2021/11/08 07:15:07;;;;;;;3.88;1.20;;;22.20;38.50;;;;;;5075430;28;20915;-61
2021/11/08 07:17:34;;;;;;;2.70;1.00;;;22.30;38.70;;;;;;5093660;28;20424;-72
2021/11/08 07:20:00;;;;;;;3.45;1.10;;;22.30;38.60;;;;;;5093005;28;20465;-61
2021/11/08 07:22:27;;;;;;;3.42;1.20;;;22.30;38.90;;;;;;5092758;28;20986;-60
2021/11/08 07:24:55;;;;;;;4.35;1.20;;;22.30;38.50;;;;;;5092808;28;20413;-61
2021/11/08 07:27:21;;;;;;;5.70;1.10;;;22.30;38.60;;;;;;5093531;28;20386;-60
2021/11/08 07:29:47;;;;;;;7.85;1.40;;;22.20;38.50;;;;;;5075053;28;20402;-60
2021/11/08 07:32:12;;;;;;;7.23;1.40;;;22.20;39.30;;;;;;5093188;28;20442;-60
2021/11/08 07:34:38;;;;;;;3.33;1.20;;;22.20;38.70;;;;;;5093536;28;20435;-63
2021/11/08 07:37:04;;;;;;;6.60;1.43;;;22.20;38.80;;;;;;5075365;28;20398;-63
2021/11/08 07:39:31;;;;;;;6.25;1.38;;;22.30;38.80;;;;;;5093217;28;20906;-63
2021/11/08 07:41:57;;;;;;;3.38;1.15;;;22.30;39.00;;;;;;5092600;28;20506;-62
2021/11/08 07:44:22;;;;;;;5.43;1.30;;;22.30;39.10;;;;;;5075038;28;20485;-63
2021/11/08 07:46:48;;;;;;;6.70;1.20;;;22.30;38.70;;;;;;5093181;28;20390;-63
2021/11/08 07:49:14;;;;;;;4.73;1.40;;;22.30;38.70;;;;;;5092763;28;20465;-60
2021/11/08 07:51:41;;;;;;;4.13;1.40;;;22.30;38.80;;;;;;5074429;28;20390;-62
2021/11/08 07:54:07;;;;;;;8.20;1.15;;;22.30;38.90;;;;;;5091959;28;20465;-67
2021/11/08 07:56:32;;;;;;;5.70;1.40;;;22.40;38.80;;;;;;5086514;28;21119;-63
2021/11/08 07:58:58;;;;;;;5.15;1.35;;;22.30;38.80;;;;;;5081852;28;20409;-62
2021/11/08 08:01:24;;;;;;;3.83;1.10;;;22.30;38.70;;;;;;5083099;28;20921;-63
2021/11/08 08:03:50;;;;;;;4.60;1.10;;;22.40;38.70;;;;;;5082610;28;20389;-77
2021/11/08 08:06:16;;;;;;;3.22;1.00;;;22.30;38.90;;;;;;5082459;28;20525;-75
2021/11/08 08:08:45;;;;;;;5.90;1.30;;;22.40;38.90;;;;;;5080524;28;20828;-63
2021/11/08 08:11:10;;;;;;;7.35;1.33;;;22.40;38.70;;;;;;5082150;28;20390;-63
2021/11/08 08:13:38;;;;;;;7.88;1.30;;;22.40;38.90;;;;;;5082356;28;20388;-63
2021/11/08 08:16:06;;;;;;;7.05;1.30;;;22.40;38.70;;;;;;5080275;28;20392;-75
2021/11/08 08:18:34;;;;;;;8.25;1.30;;;22.40;38.80;;;;;;5081875;28;20374;-64
2021/11/08 08:21:00;;;;;;;10.07;1.52;;;22.40;38.70;;;;;;5082282;28;20412;-63
2021/11/08 08:23:26;;;;;;;6.22;1.58;;;22.30;38.90;;;;;;5077284;28;20453;-68
2021/11/08 08:25:52;;;;;;;6.90;1.60;;;22.30;39.00;;;;;;5071908;28;20776;-63
2021/11/08 08:28:18;;;;;;;7.30;1.50;;;22.30;38.70;;;;;;5071854;28;20395;-63
2021/11/08 08:30:44;;;;;;;5.45;1.30;;;22.40;38.50;;;;;;5072120;28;20417;-63
2021/11/08 08:33:10;;;;;;;6.78;1.20;;;22.40;38.50;;;;;;5071789;28;20390;-63
2021/11/08 08:35:40;;;;;;;4.40;1.53;;;22.40;38.30;;;;;;5071204;28;20380;-63
2021/11/08 08:38:08;;;;;;;5.20;1.50;;;22.40;38.40;;;;;;5071290;28;20451;-63
2021/11/08 08:40:34;;;;;;;5.70;1.60;;;22.30;38.60;;;;;;5071707;28;20904;-63
2021/11/08 08:43:00;;;;;;;3.78;1.05;;;22.30;38.60;;;;;;5071727;28;20392;-63
2021/11/08 08:45:25;;;;;;;6.22;1.35;;;22.30;38.90;;;;;;5071666;28;21113;-63
2021/11/08 08:47:51;;;;;;;5.13;1.20;;;22.30;38.90;;;;;;5053560;28;20395;-63
2021/11/08 08:50:17;;;;;;;8.93;1.43;;;22.40;38.90;;;;;;5053279;28;20473;-62
2021/11/08 08:52:42;;;;;;;5.32;1.35;;;22.40;38.80;;;;;;5053810;28;20425;-62
2021/11/08 08:55:08;;;;;;;9.45;1.65;;;22.40;38.60;;;;;;5053679;28;20400;-62
2021/11/08 08:57:34;;;;;;;4.70;1.10;;;22.40;38.60;;;;;;5071675;28;20727;-63
2021/11/08 09:00:00;;;;;;;3.20;1.00;;;22.50;38.60;;;;;;5071364;28;20405;-63
2021/11/08 09:02:26;;;;;;;4.38;1.10;;;22.50;38.50;;;;;;5071541;28;20422;-62
2021/11/08 09:04:51;;;;;;;4.10;1.20;;;22.50;38.50;;;;;;5071488;28;20380;-70
2021/11/08 09:07:17;;;;;;;4.93;1.00;;;22.50;38.40;;;;;;5071500;28;20874;-63
2021/11/08 09:09:43;;;;;;;6.03;1.50;;;22.50;38.30;;;;;;5071294;28;20387;-63
2021/11/08 09:12:09;;;;;;;4.50;1.00;;;22.50;38.20;;;;;;5070708;28;20391;-62
2021/11/08 09:14:37;;;;;;;3.07;1.10;;;22.50;38.20;;;;;;5071456;28;20423;-63
2021/11/08 09:17:04;;;;;;;3.53;1.03;;;22.50;38.20;;;;;;5053361;28;20504;-62
2021/11/08 09:19:30;;;;;;;3.95;0.95;;;22.50;38.10;;;;;;5053417;28;20897;-62
2021/11/08 09:21:56;;;;;;;2.80;1.30;;;22.50;38.10;;;;;;5070831;28;20496;-63
2021/11/08 09:24:22;;;;;;;2.80;1.05;;;22.50;38.10;;;;;;5071160;28;20394;-62
2021/11/08 09:26:49;;;;;;;3.20;1.02;;;22.50;38.00;;;;;;5071271;28;20386;-63
2021/11/08 09:29:19;;;;;;;4.13;1.10;;;22.50;38.00;;;;;;5071327;28;20418;-62
2021/11/08 09:31:45;;;;;;;2.33;0.90;;;22.50;38.00;;;;;;5071323;28;20450;-63
2021/11/08 09:34:14;;;;;;;2.80;1.10;;;22.50;38.00;;;;;;5070744;28;20392;-62
2021/11/08 09:36:41;;;;;;;2.55;1.00;;;22.50;38.00;;;;;;5071354;28;20862;-62
2021/11/08 09:39:20;;;;;;;2.22;1.00;;;22.50;38.10;;;;;;5071178;28;20380;-62
2021/11/08 09:41:47;;;;;;;4.03;1.10;;;22.50;38.10;;;;;;5071022;28;20534;-63
2021/11/08 09:44:13;;;;;;;2.45;1.00;;;22.50;38.10;;;;;;5070609;28;20478;-63
2021/11/08 09:46:39;;;;;;;2.95;0.90;;;22.50;38.10;;;;;;5073941;28;20505;-63
2021/11/08 09:49:07;;;;;;;3.65;1.00;;;22.40;38.10;;;;;;5075110;28;20375;-63
2021/11/08 09:51:37;;;;;;;3.13;0.93;;;22.50;38.30;;;;;;5057125;28;20449;-62
2021/11/08 09:54:03;;;;;;;2.03;0.85;;;22.50;38.10;;;;;;5074580;28;20392;-63
2021/11/08 09:56:29;;;;;;;2.50;1.02;;;22.50;38.00;;;;;;5075012;28;20380;-62
2021/11/08 09:58:58;;;;;;;2.40;0.80;;;22.50;38.00;;;;;;5056842;28;20425;-62
2021/11/08 10:01:24;;;;;;;1.85;0.90;;;22.40;38.00;;;;;;5075089;28;20880;-62
2021/11/08 10:03:50;;;;;;;1.85;0.90;;;22.50;38.00;;;;;;5074721;28;20908;-62
2021/11/08 10:06:17;;;;;;;1.65;0.90;;;22.50;38.00;;;;;;5074379;28;20379;-62
2021/11/08 10:08:42;;;;;;;2.78;0.88;;;22.40;38.00;;;;;;5074674;28;20394;-62
2021/11/08 10:11:13;;;;;;;2.83;0.80;;;22.40;38.00;;;;;;5074610;28;20399;-62
2021/11/08 10:13:40;;;;;;;2.00;0.80;;;22.40;38.60;;;;;;5074653;28;20959;-62
2021/11/08 10:16:20;;;;;;;2.47;0.80;;;22.40;38.00;;;;;;5074191;28;20457;-63
2021/11/08 10:18:49;;;;;;;1.53;0.70;;;22.40;38.00;;;;;;5074530;28;20432;-63
2021/11/08 10:21:36;;;;;;;3.03;1.00;;;22.40;38.10;;;;;;5074202;28;20415;-62
2021/11/08 10:24:07;;;;;;;2.00;1.05;;;22.40;38.10;;;;;;5073910;28;20383;-63
2021/11/08 10:26:36;;;;;;;2.40;1.00;;;22.40;38.10;;;;;;5074526;28;20446;-63
2021/11/08 10:29:11;;;;;;;1.83;0.80;;;22.40;38.10;;;;;;5074231;28;20460;-62
2021/11/08 10:31:45;;;;;;;2.75;0.90;;;22.40;38.00;;;;;;5074385;28;20395;-62
2021/11/08 10:34:13;;;;;;;1.58;0.80;;;22.30;38.00;;;;;;5073836;28;20745;-63
2021/11/08 10:36:39;;;;;;;1.27;0.60;;;22.30;38.00;;;;;;5074277;28;20403;-62
2021/11/08 10:39:07;;;;;;;1.58;0.80;;;22.30;38.00;;;;;;5074089;28;20407;-62
2021/11/08 10:41:36;;;;;;;2.15;0.80;;;22.40;38.10;;;;;;5074108;28;20414;-63
2021/11/08 10:44:23;;;;;;;1.35;0.73;;;22.40;38.00;;;;;;5073740;28;20392;-62
2021/11/08 10:47:01;;;;;;;1.95;0.90;;;22.40;38.00;;;;;;5074068;28;20396;-63
2021/11/08 10:49:29;;;;;;;2.22;0.75;;;22.40;38.00;;;;;;5074114;28;20380;-62
2021/11/08 10:51:58;;;;;;;2.15;0.98;;;22.40;38.00;;;;;;5073692;28;20392;-68
2021/11/08 10:54:31;;;;;;;3.05;0.90;;;22.40;37.90;;;;;;5073697;28;20388;-63
2021/11/08 10:57:01;;;;;;;1.67;0.80;;;22.40;37.90;;;;;;5072988;28;20897;-63
2021/11/08 10:59:30;;;;;;;1.85;0.68;;;22.40;38.00;;;;;;5073887;28;20745;-62
2021/11/08 11:01:58;;;;;;;1.70;0.80;;;22.40;38.00;;;;;;5073449;28;20412;-63
2021/11/08 11:04:45;;;;;;;1.77;0.90;;;22.40;37.90;;;;;;5073608;28;20395;-62
2021/11/08 11:07:13;;;;;;;1.60;0.80;;;22.40;37.90;;;;;;5073793;28;20411;-63
2021/11/08 11:09:39;;;;;;;2.55;1.20;;;22.40;38.00;;;;;;5073626;28;20387;-62
2021/11/08 11:12:11;;;;;;;1.87;0.80;;;22.40;38.00;;;;;;5073083;28;20411;-63
2021/11/08 11:14:58;;;;;;;1.90;0.90;;;22.40;37.90;;;;;;5073395;28;20745;-62
2021/11/08 11:17:33;;;;;;;2.00;0.80;;;22.40;37.90;;;;;;5073580;28;20885;-78
2021/11/08 11:20:05;;;;;;;1.80;0.77;;;22.40;37.90;;;;;;5055270;28;20392;-62
2021/11/08 11:22:31;;;;;;;1.48;0.70;;;22.40;37.90;;;;;;5073182;28;20965;-63
2021/11/08 11:24:57;;;;;;;1.80;0.70;;;22.40;37.90;;;;;;5055401;28;20432;-63
2021/11/08 11:27:27;;;;;;;1.65;0.80;;;22.40;37.90;;;;;;5073334;28;20745;-63
2021/11/08 11:30:08;;;;;;;1.60;0.80;;;22.40;38.00;;;;;;5055275;28;20442;-63
2021/11/08 11:32:34;;;;;;;2.05;1.00;;;22.40;37.90;;;;;;5073267;28;20459;-63
2021/11/08 11:35:00;;;;;;;1.20;0.70;;;22.40;38.00;;;;;;5073136;28;20476;-63
2021/11/08 11:37:28;;;;;;;1.38;0.77;;;22.40;38.00;;;;;;5073344;28;20371;-62
2021/11/08 11:40:14;;;;;;;1.98;0.80;;;22.40;38.10;;;;;;5072975;28;20395;-63
2021/11/08 11:42:49;;;;;;;1.83;0.88;;;22.40;38.10;;;;;;5072910;28;20561;-63
2021/11/08 11:45:15;;;;;;;2.00;0.90;;;22.40;38.10;;;;;;5072995;28;20410;-62
2021/11/08 11:47:41;;;;;;;2.45;0.80;;;22.40;38.00;;;;;;5072974;28;20387;-62
2021/11/08 11:50:08;;;;;;;2.08;0.80;;;22.40;37.90;;;;;;5072495;28;20909;-62
2021/11/08 11:52:41;;;;;;;2.22;0.90;;;22.40;37.80;;;;;;5072765;28;20396;-62
2021/11/08 11:55:08;;;;;;;2.30;1.00;;;22.50;37.80;;;;;;5072752;28;20414;-63
2021/11/08 11:57:34;;;;;;;1.38;0.60;;;22.50;37.80;;;;;;5072633;28;20396;-63
2021/11/08 12:00:01;;;;;;;2.83;0.88;;;22.50;37.80;;;;;;5072386;28;20380;-63
2021/11/08 12:02:27;;;;;;;2.22;0.80;;;22.50;37.80;;;;;;5072386;28;20488;-63
2021/11/08 12:04:53;;;;;;;2.10;0.80;;;22.50;37.80;;;;;;5072445;28;20910;-62
2021/11/08 12:07:18;;;;;;;1.83;0.80;;;22.50;37.70;;;;;;5072553;28;20558;-62
2021/11/08 12:09:44;;;;;;;1.93;0.80;;;22.50;37.70;;;;;;5072412;28;20483;-62
2021/11/08 12:12:23;;;;;;;1.70;0.80;;;22.50;37.60;;;;;;5071989;28;20395;-63
2021/11/08 12:15:07;;;;;;;2.30;0.70;;;22.50;37.60;;;;;;5072335;28;20410;-63
2021/11/08 12:17:40;;;;;;;1.58;0.77;;;22.50;37.50;;;;;;5072346;28;20806;-62
2021/11/08 12:20:09;;;;;;;1.73;0.88;;;22.60;37.50;;;;;;5071982;28;20384;-62
2021/11/08 12:22:35;;;;;;;2.25;0.88;;;22.50;37.50;;;;;;5071948;28;20420;-63
2021/11/08 12:25:03;;;;;;;1.35;0.73;;;22.50;37.50;;;;;;5072190;28;20885;-63
2021/11/08 12:27:54;;;;;;;1.43;0.80;;;22.60;37.50;;;;;;5072160;28;20491;-63
2021/11/08 12:30:25;;;;;;;1.90;0.98;;;22.60;37.50;;;;;;5063678;28;20392;-63
2021/11/08 12:32:53;;;;;;;1.83;0.70;;;22.60;37.50;;;;;;5071640;28;20822;-62
2021/11/08 12:35:28;;;;;;;1.58;0.80;;;22.60;37.50;;;;;;5071898;28;20384;-63
2021/11/08 12:37:54;;;;;;;1.70;0.82;;;22.50;37.50;;;;;;5071910;28;20457;-62
2021/11/08 12:40:26;;;;;;;1.77;0.90;;;22.60;37.50;;;;;;5071423;28;20395;-62
2021/11/08 12:42:54;;;;;;;1.67;0.90;;;22.60;37.60;;;;;;5071801;28;20461;-62
2021/11/08 12:45:36;;;;;;;1.70;0.80;;;22.60;37.50;;;;;;5071898;28;20411;-63
2021/11/08 12:48:09;;;;;;;1.80;0.98;;;22.60;37.50;;;;;;5071481;28;20873;-62
2021/11/08 12:51:04;;;;;;;1.65;0.90;;;22.60;37.50;;;;;;5071783;28;20395;-62
2021/11/08 12:53:33;;;;;;;1.48;0.70;;;22.60;37.40;;;;;;5071851;28;20391;-63
2021/11/08 12:56:07;;;;;;;1.30;0.80;;;22.60;37.40;;;;;;5071411;28;20416;-62
2021/11/08 12:58:45;;;;;;;3.20;0.90;;;22.60;37.40;;;;;;5071552;28;20941;-63
2021/11/08 13:01:19;;;;;;;3.60;0.87;;;22.50;37.60;;;;;;5053592;28;20488;-62
2021/11/08 13:03:50;;;;;;;2.15;0.90;;;22.50;38.00;;;;;;5067718;28;20453;-62
2021/11/08 13:06:28;;;;;;;2.85;0.90;;;22.50;38.20;;;;;;5059032;28;20385;-62
2021/11/08 13:09:15;;;;;;;2.83;0.90;;;22.50;38.30;;;;;;5050063;28;20464;-78
2021/11/08 13:11:42;;;;;;;3.72;1.20;;;22.40;38.30;;;;;;5050178;28;20385;-64
2021/11/08 13:14:08;;;;;;;3.30;1.05;;;22.40;38.30;;;;;;5055005;28;20415;-62
2021/11/08 13:16:40;;;;;;;2.00;1.00;;;22.40;38.30;;;;;;5081845;28;20406;-65
2021/11/08 13:19:13;;;;;;;2.20;1.00;;;22.30;38.30;;;;;;5093787;28;20739;-79
2021/11/08 13:21:39;;;;;;;2.15;0.80;;;22.40;38.30;;;;;;5078349;28;20502;-79
2021/11/08 13:24:07;;;;;;;3.65;1.05;;;22.40;38.30;;;;;;5095752;28;20458;-79
2021/11/08 13:26:33;;;;;;;1.77;1.00;;;22.40;38.30;;;;;;5080697;28;20828;-78
2021/11/08 13:29:00;;;;;;;2.88;1.10;;;22.30;38.30;;;;;;5078905;28;20411;-79
2021/11/08 13:31:26;;;;;;;2.05;1.00;;;22.30;38.30;;;;;;5095911;28;20408;-77
2021/11/08 13:33:56;;;;;;;1.77;0.90;;;22.30;38.30;;;;;;5080612;28;20468;-78
2021/11/08 13:36:22;;;;;;;1.85;1.02;;;22.30;38.30;;;;;;5091721;28;20388;-76
2021/11/08 13:38:54;;;;;;;1.60;0.88;;;22.30;38.20;;;;;;5061962;28;20802;-78
2021/11/08 13:41:23;;;;;;;2.75;0.90;;;22.30;38.30;;;;;;5060765;28;20404;-77
2021/11/08 13:43:58;;;;;;;1.83;0.80;;;22.30;38.40;;;;;;5061860;28;20390;-77
2021/11/08 13:46:26;;;;;;;2.23;1.10;;;22.30;38.30;;;;;;5075795;28;20441;-77
2021/11/08 13:48:54;;;;;;;1.70;0.90;;;22.30;38.30;;;;;;5078912;28;20394;-66
2021/11/08 13:51:24;;;;;;;2.70;1.17;;;22.30;38.30;;;;;;5080733;28;20450;-78
2021/11/08 13:53:58;;;;;;;1.63;0.90;;;22.30;38.30;;;;;;5079913;28;20768;-64
2021/11/08 13:56:48;;;;;;;2.00;1.00;;;22.30;38.40;;;;;;5076503;28;20387;-77
2021/11/08 13:59:27;;;;;;;1.98;0.90;;;22.30;38.30;;;;;;5095214;28;20399;-77
2021/11/08 14:01:54;;;;;;;1.65;1.00;;;22.20;38.30;;;;;;5078967;28;20422;-63
2021/11/08 14:04:20;;;;;;;2.85;1.20;;;22.30;39.00;;;;;;5060105;28;20399;-79
2021/11/08 14:06:47;;;;;;;2.47;1.20;;;22.30;38.40;;;;;;5080012;28;20383;-66
2021/11/08 14:09:20;;;;;;;2.55;1.30;;;22.30;39.00;;;;;;5080548;28;20479;-78
2021/11/08 14:11:47;;;;;;;2.13;1.35;;;22.20;38.90;;;;;;5077318;28;20395;-78
2021/11/08 14:14:19;;;;;;;2.20;1.42;;;22.20;38.30;;;;;;5060702;28;20906;-79
2021/11/08 14:16:47;;;;;;;2.88;1.70;;;22.20;38.30;;;;;;5076727;28;20420;-75
2021/11/08 14:19:14;;;;;;;3.08;1.60;;;22.20;38.40;;;;;;5079125;28;20394;-64
2021/11/08 14:21:44;;;;;;;3.05;1.60;;;22.20;38.40;;;;;;5080394;28;20425;-79
2021/11/08 14:24:13;;;;;;;2.78;1.50;;;22.20;38.30;;;;;;5061505;28;20392;-63
2021/11/08 14:27:02;;;;;;;4.93;1.90;;;22.20;38.40;;;;;;5078457;28;20830;-66
2021/11/08 14:29:32;;;;;;;3.47;1.52;;;22.20;38.40;;;;;;5076809;28;20450;-77
2021/11/08 14:32:07;;;;;;;5.03;1.80;;;22.20;38.40;;;;;;5078454;28;20472;-79
2021/11/08 14:34:43;;;;;;;5.30;2.00;;;22.20;38.20;;;;;;5082380;28;20374;-70
2021/11/08 14:37:12;;;;;;;5.30;1.80;;;22.20;38.00;;;;;;5082117;28;20400;-78